• Join FlightAware (Why Join?)
  • Login
  • US Flag 
12:28AM EDT


 

Airport Tracker/Info


-or-


 

Live Flight TrackerFlight Track Log ✈ LBQ792 ✈ 30-Apr-2013 ✈ KIAG - KAGC

Flight Track Log - Related Links

Times and Time Zones

All times are in EDT time to prevent confusion due to time zone crossing. See the LBQ792 flight status page for this flight to view local times or setup timezone preferences in your user account.

Time Position Orientation Groundspeed Altitude Reporting Facility
EDT Latitude Longitude Course Direction KTS MPH feet Rate Location/Type
11:39PM 43.0833 -78.9333 180° South 146 168 3,000  Level Buffalo TRACON
11:40PM 43.0500 -78.9667 216° Southwest 161 185 4,300 1,260 Climbing Buffalo TRACON
11:41PM 43.0033 -78.9764 189° South 176 203 5,600 1,320 Climbing Cleveland Center
11:42PM 42.9494 -78.9864 188° South 181 208 7,000 1,380 Climbing Cleveland Center
11:44PM 42.8092 -78.9969 194° South  Level FlightAware Approximate
11:44PM 42.8382 -78.9892 200° South  Level FlightAware Approximate
11:51PM 42.4347 -79.1395 196° South  Level FlightAware Approximate
11:52PM 42.3772 -79.1626 196° South  Level FlightAware Approximate
11:53PM 42.3196 -79.1855 196° South  Level FlightAware Approximate
11:54PM 42.2620 -79.2079 195° South  Level FlightAware Approximate
11:55PM 42.2042 -79.2294 195° South  Level FlightAware Approximate
11:56PM 42.1463 -79.2509 195° South  Level FlightAware Approximate
11:57PM 42.0885 -79.2723 195° South  Level FlightAware Approximate
11:58PM 42.0307 -79.2937 195° South  Level FlightAware Approximate
11:59PM 41.9728 -79.3150 195° South  Level FlightAware Approximate
12:00AM 41.9150 -79.3363 195° South  Level FlightAware Approximate
12:01AM 41.8571 -79.3576 195° South  Level FlightAware Approximate
12:02AM 41.7992 -79.3788 195° South  Level FlightAware Approximate
12:03AM 41.7414 -79.4000 195° South  Level FlightAware Approximate
12:04AM 41.6835 -79.4211 195° South  Level FlightAware Approximate
12:05AM 41.6274 -79.4484 206° Southwest  Level FlightAware Approximate
12:06AM 41.5715 -79.4762 194° South  Level FlightAware Approximate
12:07AM 41.5133 -79.4956 194° South  Level FlightAware Approximate
12:08AM 41.4548 -79.5136 193° South  Level FlightAware Approximate
12:09AM 41.3917 -79.5316 195° South  Level FlightAware Approximate
12:10AM 41.3292 -79.5539 195° South  Level FlightAware Approximate
12:11AM 41.2668 -79.5762 195° South  Level FlightAware Approximate
12:12AM 41.2043 -79.5985 195° South  Level FlightAware Approximate
12:13AM 41.1422 -79.6227 197° South  Level FlightAware Approximate
12:14AM 41.0802 -79.6471 196° South  Level FlightAware Approximate
12:15AM 41.0182 -79.6714 196° South  Level FlightAware Approximate
12:16AM 40.9561 -79.6956 196° South  Level FlightAware Approximate
12:17AM 40.8941 -79.7198 196° South  Level FlightAware Approximate
12:18AM 40.8320 -79.7440 196° South  Level FlightAware Approximate
12:19AM 40.7697 -79.7666 195° South  Level FlightAware Approximate
12:20AM 40.7072 -79.7887 195° South  Level FlightAware Approximate
12:21AM 40.6447 -79.8108 195° South  Level FlightAware Approximate
12:22AM 40.5822 -79.8328 195° South  Level FlightAware Approximate
12:23AM 40.5197 -79.8546 194° South  Level FlightAware Approximate
12:24AM 40.4579 -79.8794 201° Southwest  Level FlightAware Approximate
12:25AM 40.3962 -79.9048 197° South  Level FlightAware Approximate
12:26AM 40.3500 -79.9167 180° South  Level FlightAware Approximate
12:27AM 40.3544 -79.9302 180° South  Level Estimated
12:28AM 40.3544 -79.9302 180° South  Level Estimated